sensor_id;sensor_type;location;lat;lon;timestamp;P1;durP1;ratioP1;P2;durP2;ratioP2
54452;SDS011;40363;52.270;10.546;2023-05-17T00:00:05;8.48;;;2.28;;
54452;SDS011;40363;52.270;10.546;2023-05-17T00:02:33;5.32;;;2.05;;
54452;SDS011;40363;52.270;10.546;2023-05-17T00:05:00;6.35;;;1.88;;
54452;SDS011;40363;52.270;10.546;2023-05-17T00:07:28;7.03;;;2.63;;
54452;SDS011;40363;52.270;10.546;2023-05-17T00:09:55;9.82;;;2.08;;
54452;SDS011;40363;52.270;10.546;2023-05-17T00:12:21;6.25;;;2.63;;
54452;SDS011;40363;52.270;10.546;2023-05-17T00:14:49;7.43;;;3.15;;
54452;SDS011;40363;52.270;10.546;2023-05-17T00:17:17;5.65;;;2.47;;
54452;SDS011;40363;52.270;10.546;2023-05-17T00:19:44;4.45;;;2.05;;
54452;SDS011;40363;52.270;10.546;2023-05-17T00:22:10;8.30;;;2.33;;
54452;SDS011;40363;52.270;10.546;2023-05-17T00:24:37;8.93;;;2.78;;
54452;SDS011;40363;52.270;10.546;2023-05-17T00:27:04;11.02;;;3.00;;
54452;SDS011;40363;52.270;10.546;2023-05-17T00:29:30;6.55;;;2.45;;
54452;SDS011;40363;52.270;10.546;2023-05-17T00:31:58;6.80;;;2.50;;
54452;SDS011;40363;52.270;10.546;2023-05-17T00:34:25;8.07;;;2.60;;
54452;SDS011;40363;52.270;10.546;2023-05-17T00:36:52;6.03;;;2.35;;
54452;SDS011;40363;52.270;10.546;2023-05-17T00:39:18;5.07;;;2.47;;
54452;SDS011;40363;52.270;10.546;2023-05-17T00:41:45;5.25;;;2.25;;
54452;SDS011;40363;52.270;10.546;2023-05-17T00:44:11;5.53;;;2.67;;
54452;SDS011;40363;52.270;10.546;2023-05-17T00:46:38;5.30;;;2.55;;
54452;SDS011;40363;52.270;10.546;2023-05-17T00:49:06;6.28;;;2.20;;
54452;SDS011;40363;52.270;10.546;2023-05-17T00:51:33;6.30;;;2.80;;
54452;SDS011;40363;52.270;10.546;2023-05-17T00:54:00;6.50;;;2.17;;
54452;SDS011;40363;52.270;10.546;2023-05-17T00:56:28;4.63;;;2.15;;
54452;SDS011;40363;52.270;10.546;2023-05-17T00:58:57;6.03;;;2.33;;
54452;SDS011;40363;52.270;10.546;2023-05-17T01:01:24;6.43;;;2.90;;
54452;SDS011;40363;52.270;10.546;2023-05-17T01:03:51;4.45;;;2.08;;
54452;SDS011;40363;52.270;10.546;2023-05-17T01:06:19;5.55;;;2.08;;
54452;SDS011;40363;52.270;10.546;2023-05-17T01:08:46;4.40;;;1.80;;
54452;SDS011;40363;52.270;10.546;2023-05-17T01:11:13;7.60;;;2.47;;
54452;SDS011;40363;52.270;10.546;2023-05-17T01:13:51;10.10;;;2.83;;
54452;SDS011;40363;52.270;10.546;2023-05-17T01:18:55;7.10;;;2.40;;
54452;SDS011;40363;52.270;10.546;2023-05-17T01:21:35;3.92;;;2.22;;
54452;SDS011;40363;52.270;10.546;2023-05-17T01:24:22;9.90;;;2.53;;
54452;SDS011;40363;52.270;10.546;2023-05-17T01:26:53;6.63;;;2.40;;
54452;SDS011;40363;52.270;10.546;2023-05-17T01:29:22;3.88;;;1.63;;
54452;SDS011;40363;52.270;10.546;2023-05-17T01:31:50;6.03;;;2.63;;
54452;SDS011;40363;52.270;10.546;2023-05-17T01:34:23;6.88;;;2.15;;
54452;SDS011;40363;52.270;10.546;2023-05-17T01:36:50;8.00;;;2.30;;
54452;SDS011;40363;52.270;10.546;2023-05-17T01:39:17;5.47;;;2.30;;
54452;SDS011;40363;52.270;10.546;2023-05-17T01:41:45;6.57;;;2.42;;
54452;SDS011;40363;52.270;10.546;2023-05-17T01:44:23;7.15;;;2.38;;
54452;SDS011;40363;52.270;10.546;2023-05-17T01:46:54;4.57;;;2.42;;
54452;SDS011;40363;52.270;10.546;2023-05-17T01:49:28;6.13;;;2.40;;
54452;SDS011;40363;52.270;10.546;2023-05-17T01:51:57;7.72;;;2.95;;
54452;SDS011;40363;52.270;10.546;2023-05-17T01:54:30;6.03;;;2.17;;
54452;SDS011;40363;52.270;10.546;2023-05-17T01:57:03;6.38;;;2.42;;
54452;SDS011;40363;52.270;10.546;2023-05-17T01:59:32;8.63;;;2.28;;
54452;SDS011;40363;52.270;10.546;2023-05-17T02:02:00;4.30;;;2.10;;
54452;SDS011;40363;52.270;10.546;2023-05-17T02:04:32;6.50;;;2.58;;
54452;SDS011;40363;52.270;10.546;2023-05-17T02:06:59;6.07;;;2.38;;
54452;SDS011;40363;52.270;10.546;2023-05-17T02:09:26;3.47;;;2.25;;
54452;SDS011;40363;52.270;10.546;2023-05-17T02:11:52;7.38;;;2.00;;
54452;SDS011;40363;52.270;10.546;2023-05-17T02:14:19;5.97;;;2.30;;
54452;SDS011;40363;52.270;10.546;2023-05-17T02:16:47;7.15;;;3.70;;
54452;SDS011;40363;52.270;10.546;2023-05-17T02:19:14;10.27;;;2.45;;
54452;SDS011;40363;52.270;10.546;2023-05-17T02:21:40;4.47;;;2.80;;
54452;SDS011;40363;52.270;10.546;2023-05-17T02:24:07;6.20;;;2.55;;
54452;SDS011;40363;52.270;10.546;2023-05-17T02:26:33;7.20;;;2.83;;
54452;SDS011;40363;52.270;10.546;2023-05-17T02:29:00;5.28;;;2.10;;
54452;SDS011;40363;52.270;10.546;2023-05-17T02:31:26;3.78;;;1.85;;
54452;SDS011;40363;52.270;10.546;2023-05-17T02:33:55;5.10;;;2.60;;
54452;SDS011;40363;52.270;10.546;2023-05-17T02:36:21;6.75;;;2.28;;
54452;SDS011;40363;52.270;10.546;2023-05-17T02:38:48;10.23;;;2.78;;
54452;SDS011;40363;52.270;10.546;2023-05-17T02:41:14;7.05;;;2.35;;
54452;SDS011;40363;52.270;10.546;2023-05-17T02:43:41;8.65;;;2.35;;
54452;SDS011;40363;52.270;10.546;2023-05-17T02:46:07;8.23;;;3.17;;
54452;SDS011;40363;52.270;10.546;2023-05-17T02:48:34;2.75;;;1.88;;
54452;SDS011;40363;52.270;10.546;2023-05-17T02:51:02;8.15;;;2.33;;
54452;SDS011;40363;52.270;10.546;2023-05-17T02:53:29;9.30;;;2.63;;
54452;SDS011;40363;52.270;10.546;2023-05-17T02:55:55;8.52;;;2.47;;
54452;SDS011;40363;52.270;10.546;2023-05-17T02:58:22;8.88;;;2.47;;
54452;SDS011;40363;52.270;10.546;2023-05-17T03:00:49;7.88;;;2.30;;
54452;SDS011;40363;52.270;10.546;2023-05-17T03:03:16;11.23;;;3.00;;
54452;SDS011;40363;52.270;10.546;2023-05-17T03:05:42;9.55;;;3.03;;
54452;SDS011;40363;52.270;10.546;2023-05-17T03:08:10;8.65;;;2.60;;
54452;SDS011;40363;52.270;10.546;2023-05-17T03:10:37;9.13;;;2.60;;
54452;SDS011;40363;52.270;10.546;2023-05-17T03:13:03;7.00;;;2.80;;
54452;SDS011;40363;52.270;10.546;2023-05-17T03:15:30;6.47;;;2.58;;
54452;SDS011;40363;52.270;10.546;2023-05-17T03:17:56;9.98;;;2.83;;
54452;SDS011;40363;52.270;10.546;2023-05-17T03:20:23;5.32;;;2.42;;
54452;SDS011;40363;52.270;10.546;2023-05-17T03:22:50;7.57;;;2.72;;
54452;SDS011;40363;52.270;10.546;2023-05-17T03:25:18;10.32;;;4.05;;
54452;SDS011;40363;52.270;10.546;2023-05-17T03:27:44;6.90;;;2.88;;
54452;SDS011;40363;52.270;10.546;2023-05-17T03:30:11;4.13;;;2.25;;
54452;SDS011;40363;52.270;10.546;2023-05-17T03:32:38;7.22;;;3.20;;
54452;SDS011;40363;52.270;10.546;2023-05-17T03:35:05;9.10;;;2.92;;
54452;SDS011;40363;52.270;10.546;2023-05-17T03:37:32;9.55;;;2.60;;
54452;SDS011;40363;52.270;10.546;2023-05-17T03:39:59;8.50;;;2.83;;
54452;SDS011;40363;52.270;10.546;2023-05-17T03:42:27;5.93;;;3.00;;
54452;SDS011;40363;52.270;10.546;2023-05-17T03:44:53;7.75;;;3.25;;
54452;SDS011;40363;52.270;10.546;2023-05-17T03:47:20;12.27;;;3.17;;
54452;SDS011;40363;52.270;10.546;2023-05-17T03:49:47;8.38;;;3.17;;
54452;SDS011;40363;52.270;10.546;2023-05-17T03:52:14;8.25;;;3.15;;
54452;SDS011;40363;52.270;10.546;2023-05-17T03:54:40;14.30;;;3.30;;
54452;SDS011;40363;52.270;10.546;2023-05-17T03:57:07;8.40;;;3.42;;
54452;SDS011;40363;52.270;10.546;2023-05-17T03:59:35;11.93;;;3.42;;
54452;SDS011;40363;52.270;10.546;2023-05-17T04:02:01;12.18;;;4.00;;
54452;SDS011;40363;52.270;10.546;2023-05-17T04:04:28;12.90;;;3.33;;
54452;SDS011;40363;52.270;10.546;2023-05-17T04:06:55;12.52;;;4.93;;
54452;SDS011;40363;52.270;10.546;2023-05-17T04:09:21;8.32;;;3.50;;
54452;SDS011;40363;52.270;10.546;2023-05-17T04:11:48;13.52;;;3.70;;
54452;SDS011;40363;52.270;10.546;2023-05-17T04:14:16;8.68;;;3.67;;
54452;SDS011;40363;52.270;10.546;2023-05-17T04:16:44;12.90;;;4.25;;
54452;SDS011;40363;52.270;10.546;2023-05-17T04:19:11;10.07;;;3.80;;
54452;SDS011;40363;52.270;10.546;2023-05-17T04:21:37;13.95;;;3.53;;
54452;SDS011;40363;52.270;10.546;2023-05-17T04:24:04;10.23;;;4.05;;
54452;SDS011;40363;52.270;10.546;2023-05-17T04:26:31;14.10;;;3.42;;
54452;SDS011;40363;52.270;10.546;2023-05-17T04:28:58;9.45;;;3.58;;
54452;SDS011;40363;52.270;10.546;2023-05-17T04:31:25;6.63;;;3.22;;
54452;SDS011;40363;52.270;10.546;2023-05-17T04:33:53;9.32;;;4.68;;
54452;SDS011;40363;52.270;10.546;2023-05-17T04:36:20;10.38;;;3.97;;
54452;SDS011;40363;52.270;10.546;2023-05-17T04:38:46;8.90;;;2.90;;
54452;SDS011;40363;52.270;10.546;2023-05-17T04:41:13;12.30;;;3.35;;
54452;SDS011;40363;52.270;10.546;2023-05-17T04:43:40;6.60;;;3.13;;
54452;SDS011;40363;52.270;10.546;2023-05-17T04:46:06;17.90;;;3.60;;
54452;SDS011;40363;52.270;10.546;2023-05-17T04:48:33;11.05;;;3.30;;
54452;SDS011;40363;52.270;10.546;2023-05-17T04:51:01;12.20;;;3.17;;
54452;SDS011;40363;52.270;10.546;2023-05-17T04:53:29;14.98;;;3.47;;
54452;SDS011;40363;52.270;10.546;2023-05-17T04:55:56;15.68;;;4.20;;
54452;SDS011;40363;52.270;10.546;2023-05-17T04:58:22;10.75;;;2.83;;
54452;SDS011;40363;52.270;10.546;2023-05-17T05:00:49;7.70;;;2.78;;
54452;SDS011;40363;52.270;10.546;2023-05-17T05:03:16;13.95;;;3.03;;
54452;SDS011;40363;52.270;10.546;2023-05-17T05:05:42;13.50;;;3.78;;
54452;SDS011;40363;52.270;10.546;2023-05-17T05:08:10;8.00;;;2.80;;
54452;SDS011;40363;52.270;10.546;2023-05-17T05:10:37;14.48;;;3.53;;
54452;SDS011;40363;52.270;10.546;2023-05-17T05:13:03;13.73;;;3.10;;
54452;SDS011;40363;52.270;10.546;2023-05-17T05:15:30;12.57;;;3.40;;
54452;SDS011;40363;52.270;10.546;2023-05-17T05:17:57;14.70;;;3.45;;
54452;SDS011;40363;52.270;10.546;2023-05-17T05:20:24;10.60;;;3.08;;
54452;SDS011;40363;52.270;10.546;2023-05-17T05:22:50;10.07;;;3.35;;
54452;SDS011;40363;52.270;10.546;2023-05-17T05:25:18;9.05;;;2.70;;
54452;SDS011;40363;52.270;10.546;2023-05-17T05:27:45;11.60;;;2.72;;
54452;SDS011;40363;52.270;10.546;2023-05-17T05:30:12;5.85;;;3.38;;
54452;SDS011;40363;52.270;10.546;2023-05-17T05:32:45;7.30;;;2.67;;
54452;SDS011;40363;52.270;10.546;2023-05-17T05:35:12;12.93;;;2.47;;
54452;SDS011;40363;52.270;10.546;2023-05-17T05:37:39;8.52;;;2.25;;
54452;SDS011;40363;52.270;10.546;2023-05-17T05:40:07;6.00;;;3.33;;
54452;SDS011;40363;52.270;10.546;2023-05-17T05:42:35;10.40;;;2.83;;
54452;SDS011;40363;52.270;10.546;2023-05-17T05:45:02;12.43;;;2.83;;
54452;SDS011;40363;52.270;10.546;2023-05-17T05:47:29;9.02;;;2.90;;
54452;SDS011;40363;52.270;10.546;2023-05-17T05:49:56;8.63;;;2.47;;
54452;SDS011;40363;52.270;10.546;2023-05-17T05:52:23;8.88;;;2.47;;
54452;SDS011;40363;52.270;10.546;2023-05-17T05:54:49;9.68;;;2.35;;
54452;SDS011;40363;52.270;10.546;2023-05-17T05:57:16;8.52;;;1.95;;
54452;SDS011;40363;52.270;10.546;2023-05-17T05:59:44;6.47;;;2.22;;
54452;SDS011;40363;52.270;10.546;2023-05-17T06:02:10;6.43;;;2.03;;
54452;SDS011;40363;52.270;10.546;2023-05-17T06:04:37;11.77;;;2.45;;
54452;SDS011;40363;52.270;10.546;2023-05-17T06:07:04;17.27;;;3.40;;
54452;SDS011;40363;52.270;10.546;2023-05-17T06:09:30;8.48;;;1.45;;
54452;SDS011;40363;52.270;10.546;2023-05-17T06:11:57;8.38;;;2.22;;
54452;SDS011;40363;52.270;10.546;2023-05-17T06:14:25;10.73;;;2.17;;
54452;SDS011;40363;52.270;10.546;2023-05-17T06:16:53;12.63;;;2.83;;
54452;SDS011;40363;52.270;10.546;2023-05-17T06:19:19;8.80;;;2.17;;
54452;SDS011;40363;52.270;10.546;2023-05-17T06:21:46;16.00;;;3.15;;
54452;SDS011;40363;52.270;10.546;2023-05-17T06:24:12;8.30;;;2.08;;
54452;SDS011;40363;52.270;10.546;2023-05-17T06:26:39;10.88;;;1.98;;
54452;SDS011;40363;52.270;10.546;2023-05-17T06:29:07;14.35;;;2.25;;
54452;SDS011;40363;52.270;10.546;2023-05-17T06:31:34;14.38;;;2.10;;
54452;SDS011;40363;52.270;10.546;2023-05-17T06:34:02;9.68;;;1.70;;
54452;SDS011;40363;52.270;10.546;2023-05-17T06:36:29;6.93;;;1.90;;
54452;SDS011;40363;52.270;10.546;2023-05-17T06:38:55;6.78;;;1.38;;
54452;SDS011;40363;52.270;10.546;2023-05-17T06:41:22;5.85;;;2.05;;
54452;SDS011;40363;52.270;10.546;2023-05-17T06:43:49;7.90;;;1.92;;
54452;SDS011;40363;52.270;10.546;2023-05-17T06:46:15;9.35;;;1.85;;
54452;SDS011;40363;52.270;10.546;2023-05-17T06:48:42;10.90;;;2.25;;
54452;SDS011;40363;52.270;10.546;2023-05-17T06:51:10;7.75;;;1.80;;
54452;SDS011;40363;52.270;10.546;2023-05-17T06:53:36;6.30;;;1.20;;
54452;SDS011;40363;52.270;10.546;2023-05-17T06:56:03;7.78;;;1.65;;
54452;SDS011;40363;52.270;10.546;2023-05-17T06:58:30;10.23;;;1.92;;
54452;SDS011;40363;52.270;10.546;2023-05-17T07:00:56;7.20;;;1.00;;
54452;SDS011;40363;52.270;10.546;2023-05-17T07:03:23;5.00;;;1.38;;
54452;SDS011;40363;52.270;10.546;2023-05-17T07:05:54;9.73;;;1.30;;
54452;SDS011;40363;52.270;10.546;2023-05-17T07:08:22;9.52;;;1.65;;
54452;SDS011;40363;52.270;10.546;2023-05-17T07:10:49;4.22;;;1.15;;
54452;SDS011;40363;52.270;10.546;2023-05-17T07:13:17;7.32;;;1.48;;
54452;SDS011;40363;52.270;10.546;2023-05-17T07:15:44;8.45;;;1.38;;
54452;SDS011;40363;52.270;10.546;2023-05-17T07:18:12;3.83;;;1.88;;
54452;SDS011;40363;52.270;10.546;2023-05-17T07:20:38;4.68;;;1.95;;
54452;SDS011;40363;52.270;10.546;2023-05-17T07:23:06;7.43;;;1.38;;
54452;SDS011;40363;52.270;10.546;2023-05-17T07:25:36;5.68;;;1.30;;
54452;SDS011;40363;52.270;10.546;2023-05-17T07:28:04;5.15;;;1.20;;
54452;SDS011;40363;52.270;10.546;2023-05-17T07:30:31;7.35;;;2.03;;
54452;SDS011;40363;52.270;10.546;2023-05-17T07:33:00;12.00;;;2.38;;
54452;SDS011;40363;52.270;10.546;2023-05-17T07:35:27;5.57;;;1.70;;
54452;SDS011;40363;52.270;10.546;2023-05-17T07:37:55;6.18;;;1.23;;
54452;SDS011;40363;52.270;10.546;2023-05-17T07:40:21;3.90;;;1.02;;
54452;SDS011;40363;52.270;10.546;2023-05-17T07:42:50;5.78;;;1.20;;
54452;SDS011;40363;52.270;10.546;2023-05-17T07:45:17;7.03;;;2.50;;
54452;SDS011;40363;52.270;10.546;2023-05-17T07:47:44;5.35;;;1.23;;
54452;SDS011;40363;52.270;10.546;2023-05-17T07:50:12;5.53;;;1.40;;
54452;SDS011;40363;52.270;10.546;2023-05-17T07:52:38;5.90;;;1.92;;
54452;SDS011;40363;52.270;10.546;2023-05-17T07:55:06;6.65;;;1.20;;
54452;SDS011;40363;52.270;10.546;2023-05-17T07:57:33;6.90;;;1.73;;
54452;SDS011;40363;52.270;10.546;2023-05-17T08:00:03;9.40;;;1.63;;
54452;SDS011;40363;52.270;10.546;2023-05-17T08:02:32;7.45;;;1.80;;
54452;SDS011;40363;52.270;10.546;2023-05-17T08:05:00;13.82;;;1.75;;
54452;SDS011;40363;52.270;10.546;2023-05-17T08:07:27;7.65;;;1.40;;
54452;SDS011;40363;52.270;10.546;2023-05-17T08:09:54;7.85;;;1.40;;
54452;SDS011;40363;52.270;10.546;2023-05-17T08:12:21;6.50;;;1.75;;
54452;SDS011;40363;52.270;10.546;2023-05-17T08:14:48;3.92;;;1.25;;
54452;SDS011;40363;52.270;10.546;2023-05-17T08:17:16;10.65;;;1.88;;
54452;SDS011;40363;52.270;10.546;2023-05-17T08:19:43;7.85;;;1.48;;
54452;SDS011;40363;52.270;10.546;2023-05-17T08:22:09;4.68;;;1.02;;
54452;SDS011;40363;52.270;10.546;2023-05-17T08:24:36;2.65;;;1.27;;
54452;SDS011;40363;52.270;10.546;2023-05-17T08:27:04;2.70;;;1.08;;
54452;SDS011;40363;52.270;10.546;2023-05-17T08:29:31;4.13;;;0.95;;
54452;SDS011;40363;52.270;10.546;2023-05-17T08:31:57;5.15;;;1.10;;
54452;SDS011;40363;52.270;10.546;2023-05-17T08:34:26;4.78;;;1.23;;
54452;SDS011;40363;52.270;10.546;2023-05-17T08:36:53;11.50;;;1.65;;
54452;SDS011;40363;52.270;10.546;2023-05-17T08:39:20;3.63;;;1.15;;
54452;SDS011;40363;52.270;10.546;2023-05-17T08:41:46;7.30;;;1.00;;
54452;SDS011;40363;52.270;10.546;2023-05-17T08:44:15;5.10;;;1.35;;
54452;SDS011;40363;52.270;10.546;2023-05-17T08:46:42;4.40;;;1.42;;
54452;SDS011;40363;52.270;10.546;2023-05-17T08:49:09;11.05;;;1.70;;
54452;SDS011;40363;52.270;10.546;2023-05-17T08:51:41;5.70;;;1.17;;
54452;SDS011;40363;52.270;10.546;2023-05-17T08:54:12;6.00;;;1.30;;
54452;SDS011;40363;52.270;10.546;2023-05-17T08:56:39;12.05;;;1.88;;
54452;SDS011;40363;52.270;10.546;2023-05-17T08:59:09;6.55;;;2.00;;
54452;SDS011;40363;52.270;10.546;2023-05-17T09:01:37;4.13;;;1.65;;
54452;SDS011;40363;52.270;10.546;2023-05-17T09:04:06;5.18;;;1.15;;
54452;SDS011;40363;52.270;10.546;2023-05-17T09:06:34;6.78;;;1.52;;
54452;SDS011;40363;52.270;10.546;2023-05-17T09:09:03;2.20;;;0.85;;
54452;SDS011;40363;52.270;10.546;2023-05-17T09:11:31;5.88;;;1.20;;
54452;SDS011;40363;52.270;10.546;2023-05-17T09:13:58;4.13;;;1.58;;
54452;SDS011;40363;52.270;10.546;2023-05-17T09:16:26;5.20;;;1.60;;
54452;SDS011;40363;52.270;10.546;2023-05-17T09:18:53;8.80;;;1.65;;
54452;SDS011;40363;52.270;10.546;2023-05-17T09:21:20;7.07;;;1.50;;
54452;SDS011;40363;52.270;10.546;2023-05-17T09:23:47;6.65;;;1.80;;
54452;SDS011;40363;52.270;10.546;2023-05-17T09:26:17;6.53;;;1.80;;
54452;SDS011;40363;52.270;10.546;2023-05-17T09:28:44;6.00;;;1.38;;
54452;SDS011;40363;52.270;10.546;2023-05-17T09:31:13;8.43;;;1.58;;
54452;SDS011;40363;52.270;10.546;2023-05-17T09:33:41;8.18;;;1.60;;
54452;SDS011;40363;52.270;10.546;2023-05-17T09:36:14;9.60;;;1.20;;
54452;SDS011;40363;52.270;10.546;2023-05-17T09:38:42;4.63;;;1.30;;
54452;SDS011;40363;52.270;10.546;2023-05-17T09:49:01;2.28;;;0.80;;
54452;SDS011;40363;52.270;10.546;2023-05-17T09:51:33;5.10;;;1.67;;
54452;SDS011;40363;52.270;10.546;2023-05-17T09:54:00;6.65;;;1.52;;
54452;SDS011;40363;52.270;10.546;2023-05-17T09:56:28;5.55;;;1.40;;
54452;SDS011;40363;52.270;10.546;2023-05-17T09:58:55;9.38;;;1.88;;
54452;SDS011;40363;52.270;10.546;2023-05-17T10:01:27;8.60;;;2.05;;
54452;SDS011;40363;52.270;10.546;2023-05-17T10:03:58;8.65;;;1.40;;
54452;SDS011;40363;52.270;10.546;2023-05-17T10:06:27;3.42;;;1.13;;
54452;SDS011;40363;52.270;10.546;2023-05-17T10:08:59;8.38;;;1.63;;
54452;SDS011;40363;52.270;10.546;2023-05-17T10:11:28;5.78;;;1.98;;
54452;SDS011;40363;52.270;10.546;2023-05-17T10:14:01;4.65;;;1.17;;
54452;SDS011;40363;52.270;10.546;2023-05-17T10:16:44;9.10;;;1.48;;
54452;SDS011;40363;52.270;10.546;2023-05-17T10:19:11;6.15;;;2.20;;
54452;SDS011;40363;52.270;10.546;2023-05-17T10:21:39;5.93;;;2.38;;
54452;SDS011;40363;52.270;10.546;2023-05-17T10:24:06;5.75;;;1.60;;
54452;SDS011;40363;52.270;10.546;2023-05-17T10:26:33;3.35;;;1.27;;
54452;SDS011;40363;52.270;10.546;2023-05-17T10:29:02;4.18;;;1.23;;
54452;SDS011;40363;52.270;10.546;2023-05-17T10:31:32;7.55;;;1.55;;
54452;SDS011;40363;52.270;10.546;2023-05-17T10:34:02;3.10;;;1.10;;
54452;SDS011;40363;52.270;10.546;2023-05-17T10:36:30;8.73;;;1.60;;
54452;SDS011;40363;52.270;10.546;2023-05-17T10:38:58;6.30;;;1.40;;
54452;SDS011;40363;52.270;10.546;2023-05-17T10:41:26;4.95;;;2.15;;
54452;SDS011;40363;52.270;10.546;2023-05-17T10:43:57;6.68;;;1.80;;
54452;SDS011;40363;52.270;10.546;2023-05-17T10:46:25;6.05;;;1.10;;
54452;SDS011;40363;52.270;10.546;2023-05-17T10:48:56;3.85;;;1.27;;
54452;SDS011;40363;52.270;10.546;2023-05-17T10:51:29;6.90;;;1.70;;
54452;SDS011;40363;52.270;10.546;2023-05-17T10:54:02;6.97;;;1.48;;
54452;SDS011;40363;52.270;10.546;2023-05-17T10:56:31;6.40;;;1.58;;
54452;SDS011;40363;52.270;10.546;2023-05-17T10:59:17;9.10;;;1.63;;
54452;SDS011;40363;52.270;10.546;2023-05-17T11:01:53;5.18;;;2.38;;
54452;SDS011;40363;52.270;10.546;2023-05-17T11:04:24;4.47;;;1.90;;
54452;SDS011;40363;52.270;10.546;2023-05-17T11:10:01;8.10;;;1.58;;
54452;SDS011;40363;52.270;10.546;2023-05-17T11:12:32;3.15;;;1.02;;
54452;SDS011;40363;52.270;10.546;2023-05-17T11:15:03;5.78;;;1.35;;
54452;SDS011;40363;52.270;10.546;2023-05-17T11:17:36;9.63;;;1.95;;
54452;SDS011;40363;52.270;10.546;2023-05-17T11:20:30;5.57;;;1.70;;
54452;SDS011;40363;52.270;10.546;2023-05-17T11:23:02;6.55;;;1.70;;
54452;SDS011;40363;52.270;10.546;2023-05-17T11:25:31;4.32;;;0.95;;
54452;SDS011;40363;52.270;10.546;2023-05-17T11:28:04;3.60;;;1.35;;
54452;SDS011;40363;52.270;10.546;2023-05-17T11:30:33;8.07;;;1.40;;
54452;SDS011;40363;52.270;10.546;2023-05-17T11:33:05;5.15;;;1.23;;
54452;SDS011;40363;52.270;10.546;2023-05-17T11:35:33;7.22;;;1.40;;
54452;SDS011;40363;52.270;10.546;2023-05-17T11:38:15;7.03;;;1.40;;
54452;SDS011;40363;52.270;10.546;2023-05-17T11:40:43;7.35;;;1.38;;
54452;SDS011;40363;52.270;10.546;2023-05-17T11:43:11;3.95;;;1.58;;
54452;SDS011;40363;52.270;10.546;2023-05-17T11:45:40;8.57;;;1.58;;
54452;SDS011;40363;52.270;10.546;2023-05-17T11:48:08;10.68;;;1.67;;
54452;SDS011;40363;52.270;10.546;2023-05-17T11:50:35;3.63;;;1.05;;
54452;SDS011;40363;52.270;10.546;2023-05-17T11:53:03;5.20;;;1.70;;
54452;SDS011;40363;52.270;10.546;2023-05-17T11:55:32;7.50;;;1.27;;
54452;SDS011;40363;52.270;10.546;2023-05-17T11:58:00;7.53;;;1.40;;
54452;SDS011;40363;52.270;10.546;2023-05-17T12:00:28;9.30;;;1.20;;
54452;SDS011;40363;52.270;10.546;2023-05-17T12:02:54;5.35;;;1.95;;
54452;SDS011;40363;52.270;10.546;2023-05-17T12:05:21;7.00;;;1.70;;
54452;SDS011;40363;52.270;10.546;2023-05-17T12:07:48;7.32;;;1.15;;
54452;SDS011;40363;52.270;10.546;2023-05-17T12:10:16;5.43;;;1.30;;
54452;SDS011;40363;52.270;10.546;2023-05-17T12:12:45;3.22;;;0.85;;
54452;SDS011;40363;52.270;10.546;2023-05-17T12:15:16;4.80;;;1.20;;
54452;SDS011;40363;52.270;10.546;2023-05-17T12:17:43;7.45;;;2.00;;
54452;SDS011;40363;52.270;10.546;2023-05-17T12:20:13;2.50;;;1.00;;
54452;SDS011;40363;52.270;10.546;2023-05-17T12:22:52;3.00;;;1.52;;
54452;SDS011;40363;52.270;10.546;2023-05-17T12:25:20;3.47;;;1.67;;
54452;SDS011;40363;52.270;10.546;2023-05-17T12:27:50;4.80;;;2.13;;
54452;SDS011;40363;52.270;10.546;2023-05-17T12:30:18;4.45;;;1.25;;
54452;SDS011;40363;52.270;10.546;2023-05-17T12:32:44;4.13;;;1.25;;
54452;SDS011;40363;52.270;10.546;2023-05-17T12:35:12;4.68;;;1.42;;
54452;SDS011;40363;52.270;10.546;2023-05-17T12:37:39;7.65;;;1.70;;
54452;SDS011;40363;52.270;10.546;2023-05-17T12:40:06;7.20;;;1.35;;
54452;SDS011;40363;52.270;10.546;2023-05-17T12:42:36;6.55;;;1.75;;
54452;SDS011;40363;52.270;10.546;2023-05-17T12:45:06;6.40;;;1.80;;
54452;SDS011;40363;52.270;10.546;2023-05-17T12:47:36;6.85;;;1.75;;
54452;SDS011;40363;52.270;10.546;2023-05-17T12:50:03;10.15;;;1.63;;
54452;SDS011;40363;52.270;10.546;2023-05-17T12:52:32;4.35;;;1.50;;
54452;SDS011;40363;52.270;10.546;2023-05-17T12:55:01;4.20;;;1.30;;
54452;SDS011;40363;52.270;10.546;2023-05-17T12:57:28;5.03;;;1.70;;
54452;SDS011;40363;52.270;10.546;2023-05-17T12:59:55;6.03;;;1.17;;
54452;SDS011;40363;52.270;10.546;2023-05-17T13:02:23;2.63;;;1.00;;
54452;SDS011;40363;52.270;10.546;2023-05-17T13:04:49;5.75;;;1.45;;
54452;SDS011;40363;52.270;10.546;2023-05-17T13:07:20;5.18;;;1.83;;
54452;SDS011;40363;52.270;10.546;2023-05-17T13:09:48;8.23;;;1.50;;
54452;SDS011;40363;52.270;10.546;2023-05-17T13:12:17;5.28;;;1.05;;
54452;SDS011;40363;52.270;10.546;2023-05-17T13:14:46;4.72;;;1.45;;
54452;SDS011;40363;52.270;10.546;2023-05-17T13:17:16;5.43;;;0.95;;
54452;SDS011;40363;52.270;10.546;2023-05-17T13:19:46;5.43;;;1.67;;
54452;SDS011;40363;52.270;10.546;2023-05-17T13:22:13;4.97;;;1.17;;
54452;SDS011;40363;52.270;10.546;2023-05-17T13:24:41;2.60;;;1.30;;
54452;SDS011;40363;52.270;10.546;2023-05-17T13:27:09;6.72;;;1.25;;
54452;SDS011;40363;52.270;10.546;2023-05-17T13:29:37;2.08;;;1.00;;
54452;SDS011;40363;52.270;10.546;2023-05-17T13:32:05;4.18;;;0.80;;
54452;SDS011;40363;52.270;10.546;2023-05-17T13:34:33;3.92;;;0.73;;
54452;SDS011;40363;52.270;10.546;2023-05-17T13:37:02;6.25;;;1.27;;
54452;SDS011;40363;52.270;10.546;2023-05-17T13:39:28;3.40;;;1.08;;
54452;SDS011;40363;52.270;10.546;2023-05-17T13:41:55;5.22;;;1.75;;
54452;SDS011;40363;52.270;10.546;2023-05-17T13:44:23;6.00;;;1.13;;
54452;SDS011;40363;52.270;10.546;2023-05-17T13:46:49;7.63;;;1.00;;
54452;SDS011;40363;52.270;10.546;2023-05-17T13:49:16;4.43;;;1.08;;
54452;SDS011;40363;52.270;10.546;2023-05-17T13:51:43;5.32;;;1.05;;
54452;SDS011;40363;52.270;10.546;2023-05-17T13:54:11;2.28;;;0.80;;
54452;SDS011;40363;52.270;10.546;2023-05-17T13:56:38;3.35;;;0.93;;
54452;SDS011;40363;52.270;10.546;2023-05-17T13:59:04;3.67;;;1.23;;
54452;SDS011;40363;52.270;10.546;2023-05-17T14:01:31;6.00;;;1.45;;
54452;SDS011;40363;52.270;10.546;2023-05-17T14:03:58;2.38;;;0.88;;
54452;SDS011;40363;52.270;10.546;2023-05-17T14:06:25;4.65;;;1.23;;
54452;SDS011;40363;52.270;10.546;2023-05-17T14:08:52;2.55;;;0.88;;
54452;SDS011;40363;52.270;10.546;2023-05-17T14:11:21;4.22;;;0.93;;
54452;SDS011;40363;52.270;10.546;2023-05-17T14:13:47;4.90;;;1.13;;
54452;SDS011;40363;52.270;10.546;2023-05-17T14:16:14;2.40;;;1.27;;
54452;SDS011;40363;52.270;10.546;2023-05-17T14:18:41;3.95;;;1.00;;
54452;SDS011;40363;52.270;10.546;2023-05-17T14:21:07;3.60;;;0.90;;
54452;SDS011;40363;52.270;10.546;2023-05-17T14:23:34;4.85;;;0.90;;
54452;SDS011;40363;52.270;10.546;2023-05-17T14:26:01;5.35;;;1.27;;
54452;SDS011;40363;52.270;10.546;2023-05-17T14:28:32;2.33;;;0.63;;
54452;SDS011;40363;52.270;10.546;2023-05-17T14:31:02;3.20;;;1.42;;
54452;SDS011;40363;52.270;10.546;2023-05-17T14:33:29;3.40;;;0.98;;
54452;SDS011;40363;52.270;10.546;2023-05-17T14:35:56;2.92;;;1.30;;
54452;SDS011;40363;52.270;10.546;2023-05-17T14:38:23;3.47;;;1.38;;
54452;SDS011;40363;52.270;10.546;2023-05-17T14:40:49;4.40;;;1.17;;
54452;SDS011;40363;52.270;10.546;2023-05-17T14:43:16;4.47;;;1.00;;
54452;SDS011;40363;52.270;10.546;2023-05-17T14:45:45;4.75;;;1.17;;
54452;SDS011;40363;52.270;10.546;2023-05-17T14:48:12;4.10;;;1.10;;
54452;SDS011;40363;52.270;10.546;2023-05-17T14:50:38;7.82;;;1.23;;